createdAt,value
2023-01-19T00:00:54.784Z,6.67
2023-01-19T00:03:21.722Z,6.83
2023-01-19T00:05:49.046Z,6.30
2023-01-19T00:08:16.275Z,7.13
2023-01-19T00:10:47.811Z,7.83
2023-01-19T00:13:15.670Z,7.00
2023-01-19T00:15:43.025Z,7.40
2023-01-19T00:18:11.198Z,6.57
2023-01-19T00:20:38.844Z,7.67
2023-01-19T00:23:07.509Z,6.77
2023-01-19T00:25:34.401Z,7.60
2023-01-19T00:28:01.931Z,6.90
2023-01-19T00:30:29.224Z,7.40
2023-01-19T00:32:56.822Z,7.57
2023-01-19T00:35:23.954Z,7.30
2023-01-19T00:37:50.741Z,6.97
2023-01-19T00:40:18.168Z,7.23
2023-01-19T00:42:45.115Z,7.13
2023-01-19T00:45:13.525Z,7.23
2023-01-19T00:47:40.837Z,7.17
2023-01-19T00:50:11.766Z,7.23
2023-01-19T00:52:41.792Z,7.07
2023-01-19T00:55:10.901Z,7.17
2023-01-19T00:57:38.892Z,6.93
2023-01-19T01:00:07.435Z,7.60
2023-01-19T01:02:34.573Z,7.10
2023-01-19T01:05:02.843Z,7.13
2023-01-19T01:07:30.703Z,7.27
2023-01-19T01:09:57.873Z,7.17
2023-01-19T01:12:24.609Z,7.13
2023-01-19T01:14:51.767Z,7.20
2023-01-19T01:17:24.807Z,7.00
2023-01-19T01:19:52.433Z,7.10
2023-01-19T01:22:19.505Z,6.87
2023-01-19T01:24:46.605Z,6.30
2023-01-19T01:27:13.319Z,6.60
2023-01-19T01:29:41.271Z,6.93
2023-01-19T01:32:08.776Z,6.90
2023-01-19T01:34:35.970Z,6.20
2023-01-19T01:37:03.021Z,7.40
2023-01-19T01:39:29.747Z,6.70
2023-01-19T01:41:57.605Z,6.83
2023-01-19T01:44:49.479Z,7.60
2023-01-19T01:47:28.587Z,6.87
2023-01-19T01:50:07.888Z,6.97
2023-01-19T01:52:37.211Z,7.57
2023-01-19T01:55:07.139Z,7.17
2023-01-19T01:57:42.049Z,6.73
2023-01-19T02:00:09.544Z,6.80
2023-01-19T02:02:52.340Z,6.70
2023-01-19T02:05:27.965Z,6.30
2023-01-19T02:08:20.686Z,6.47
2023-01-19T02:11:07.196Z,6.83
2023-01-19T02:13:36.374Z,6.30
2023-01-19T02:16:06.999Z,6.80
2023-01-19T02:18:34.684Z,6.30
2023-01-19T02:21:13.008Z,6.90
2023-01-19T02:23:47.133Z,6.13
2023-01-19T02:26:18.680Z,6.23
2023-01-19T02:28:48.995Z,6.27
2023-01-19T02:31:15.915Z,6.57
2023-01-19T02:33:43.063Z,6.40
2023-01-19T02:36:15.818Z,6.33
2023-01-19T02:38:44.093Z,6.10
2023-01-19T02:41:13.690Z,6.47
2023-01-19T02:43:41.742Z,6.10
2023-01-19T02:46:08.788Z,6.60
2023-01-19T02:48:36.015Z,6.07
2023-01-19T02:51:09.745Z,6.60
2023-01-19T02:53:59.537Z,6.47
2023-01-19T02:56:32.717Z,6.13
2023-01-19T02:59:02.643Z,6.40
2023-01-19T03:01:45.485Z,5.93
2023-01-19T03:04:27.473Z,6.33
2023-01-19T03:07:10.966Z,6.37
2023-01-19T03:09:58.311Z,6.10
2023-01-19T03:12:25.423Z,5.87
2023-01-19T03:14:54.749Z,5.57
2023-01-19T03:17:22.829Z,6.40
2023-01-19T03:19:51.098Z,5.77
2023-01-19T03:22:27.250Z,5.70
2023-01-19T03:24:56.446Z,5.50
2023-01-19T03:27:27.769Z,5.43
2023-01-19T03:29:57.358Z,5.63
2023-01-19T03:32:29.704Z,4.83
2023-01-19T03:34:57.797Z,5.73
2023-01-19T03:37:26.359Z,5.37
2023-01-19T03:39:53.082Z,5.13
2023-01-19T03:42:21.041Z,5.00
2023-01-19T03:44:50.665Z,5.40
2023-01-19T03:47:18.487Z,4.73
2023-01-19T03:49:46.911Z,5.10
2023-01-19T03:52:14.145Z,5.20
2023-01-19T03:54:41.341Z,5.37
2023-01-19T03:57:08.165Z,5.30
2023-01-19T03:59:35.261Z,4.90
2023-01-19T04:02:02.441Z,4.70
2023-01-19T04:04:29.572Z,5.20
2023-01-19T04:06:56.193Z,5.00
2023-01-19T04:09:23.407Z,4.90
2023-01-19T04:11:50.731Z,4.63
2023-01-19T04:14:17.853Z,5.50
2023-01-19T04:16:44.496Z,5.00
2023-01-19T04:19:11.580Z,4.87
2023-01-19T04:21:38.251Z,4.50
2023-01-19T04:24:05.220Z,5.03
2023-01-19T04:26:32.295Z,4.70
2023-01-19T04:28:58.925Z,5.57
2023-01-19T04:31:26.091Z,4.57
2023-01-19T04:33:52.948Z,5.27
2023-01-19T04:36:20.028Z,4.80
2023-01-19T04:38:48.549Z,4.70
2023-01-19T04:41:15.280Z,4.20
2023-01-19T04:43:42.349Z,4.73
2023-01-19T04:46:09.466Z,4.50
2023-01-19T04:48:36.587Z,4.10
2023-01-19T04:51:03.384Z,4.27
2023-01-19T04:53:30.503Z,4.77
2023-01-19T04:55:58.989Z,4.10
2023-01-19T04:58:26.044Z,4.13
2023-01-19T05:00:53.229Z,4.30
2023-01-19T05:03:20.259Z,4.10
2023-01-19T05:05:47.050Z,4.10
2023-01-19T05:08:14.242Z,4.40
2023-01-19T05:10:41.338Z,4.30
2023-01-19T05:13:08.449Z,4.10
2023-01-19T05:15:35.147Z,4.50
2023-01-19T05:18:02.301Z,4.43
2023-01-19T05:20:29.390Z,4.20
2023-01-19T05:22:56.493Z,4.17
2023-01-19T05:25:23.338Z,4.53
2023-01-19T05:27:50.469Z,4.50
2023-01-19T05:30:18.002Z,4.10
2023-01-19T05:32:45.151Z,4.10
2023-01-19T05:35:13.446Z,4.07
2023-01-19T05:37:40.969Z,4.63
2023-01-19T05:40:08.634Z,4.47
2023-01-19T05:42:35.687Z,4.07
2023-01-19T05:45:04.296Z,6.37
2023-01-19T05:47:31.574Z,6.93
2023-01-19T05:49:58.569Z,5.47
2023-01-19T05:52:25.655Z,6.00
2023-01-19T05:54:52.409Z,7.60
2023-01-19T05:57:19.149Z,8.43
2023-01-19T05:59:46.337Z,6.37
2023-01-19T06:02:13.303Z,6.10
2023-01-19T06:04:40.612Z,7.40
2023-01-19T06:07:07.374Z,7.23
2023-01-19T06:09:34.462Z,6.90
2023-01-19T06:12:01.618Z,8.07
2023-01-19T06:14:28.733Z,8.53
2023-01-19T06:16:55.809Z,8.53
2023-01-19T06:19:22.914Z,8.63
2023-01-19T06:21:52.102Z,9.87
2023-01-19T06:24:19.572Z,10.17
2023-01-19T06:26:46.301Z,11.47
2023-01-19T06:29:14.481Z,8.73
2023-01-19T06:31:41.908Z,9.17
2023-01-19T06:34:09.038Z,9.17
2023-01-19T06:36:36.205Z,9.70
2023-01-19T06:39:05.769Z,10.27
2023-01-19T06:41:33.455Z,13.13
2023-01-19T06:44:00.555Z,9.87
2023-01-19T06:46:27.516Z,8.63
2023-01-19T06:48:54.776Z,9.13
2023-01-19T06:51:22.158Z,8.93
2023-01-19T06:53:49.271Z,8.80
2023-01-19T06:56:16.663Z,9.43
2023-01-19T06:58:43.892Z,9.20
2023-01-19T07:01:11.174Z,9.40
2023-01-19T07:03:38.596Z,9.87
2023-01-19T07:06:08.687Z,9.90
2023-01-19T07:08:36.716Z,9.40
2023-01-19T07:11:25.921Z,9.43
2023-01-19T07:13:54.955Z,10.27
2023-01-19T07:16:22.106Z,9.70
2023-01-19T07:18:50.108Z,10.53
2023-01-19T07:21:17.358Z,9.30
2023-01-19T07:23:44.418Z,9.63
2023-01-19T07:26:11.196Z,10.80
2023-01-19T07:28:38.274Z,10.33
2023-01-19T07:31:05.604Z,10.93
2023-01-19T07:33:33.002Z,10.70
2023-01-19T07:36:00.138Z,11.03
2023-01-19T07:38:26.817Z,11.70
2023-01-19T07:41:00.551Z,11.20
2023-01-19T07:43:27.676Z,12.03
2023-01-19T07:45:58.917Z,11.53
2023-01-19T07:48:26.278Z,11.13
2023-01-19T07:50:53.639Z,11.07
2023-01-19T07:53:20.409Z,11.27
2023-01-19T07:55:47.542Z,11.10
2023-01-19T07:58:14.819Z,11.70
2023-01-19T08:00:41.969Z,11.30
2023-01-19T08:03:10.496Z,11.90
2023-01-19T08:05:37.698Z,11.43
2023-01-19T08:08:05.505Z,12.47
2023-01-19T08:10:34.075Z,12.87
2023-01-19T08:13:01.591Z,12.17
2023-01-19T08:15:28.463Z,12.20
2023-01-19T08:18:02.391Z,11.50
2023-01-19T08:20:30.094Z,11.43
2023-01-19T08:23:00.311Z,12.73
2023-01-19T08:25:32.891Z,13.40
2023-01-19T08:27:59.576Z,12.13
2023-01-19T08:30:26.918Z,12.73
2023-01-19T08:32:58.091Z,12.00
2023-01-19T08:35:25.491Z,12.97
2023-01-19T08:37:52.604Z,11.97
2023-01-19T08:40:20.186Z,12.33
2023-01-19T08:42:47.255Z,12.17
2023-01-19T08:45:14.129Z,12.17
2023-01-19T08:47:40.861Z,12.50
2023-01-19T08:50:08.316Z,12.33
2023-01-19T08:52:35.554Z,11.23
2023-01-19T08:55:02.241Z,11.97
2023-01-19T08:57:29.017Z,13.17
2023-01-19T08:59:56.151Z,12.40
2023-01-19T09:02:23.000Z,12.10
2023-01-19T09:04:50.170Z,11.83
2023-01-19T09:07:18.948Z,11.53
2023-01-19T09:09:45.678Z,11.57
2023-01-19T09:12:14.466Z,11.50
2023-01-19T09:14:41.368Z,11.60
2023-01-19T09:17:08.512Z,11.37
2023-01-19T09:19:35.253Z,12.27
2023-01-19T09:22:02.364Z,13.00
2023-01-19T09:24:29.514Z,12.87
2023-01-19T09:26:56.182Z,12.00
2023-01-19T09:29:23.270Z,12.17
2023-01-19T09:31:50.039Z,11.63
2023-01-19T09:34:17.225Z,12.47
2023-01-19T09:36:43.901Z,13.23
2023-01-19T09:39:11.107Z,12.10
2023-01-19T09:41:38.957Z,13.17
2023-01-19T09:44:07.085Z,12.80
2023-01-19T09:46:37.410Z,14.27
2023-01-19T09:49:06.712Z,14.37
2023-01-19T09:51:37.959Z,13.17
2023-01-19T09:54:41.061Z,14.47
2023-01-19T09:57:12.423Z,15.37
2023-01-19T09:59:40.209Z,14.10
2023-01-19T10:02:07.972Z,13.30
2023-01-19T10:04:41.070Z,14.30
2023-01-19T10:07:17.421Z,13.17
2023-01-19T10:09:56.580Z,14.50
2023-01-19T10:12:26.428Z,13.97
2023-01-19T10:15:01.749Z,13.50
2023-01-19T10:18:00.986Z,14.60
2023-01-19T10:20:33.583Z,14.60
2023-01-19T10:23:01.423Z,14.53
2023-01-19T10:25:28.627Z,14.53
2023-01-19T10:27:55.435Z,14.90
2023-01-19T10:30:24.680Z,16.47
2023-01-19T10:32:52.348Z,16.37
2023-01-19T10:35:25.014Z,15.57
2023-01-19T10:37:53.605Z,16.50
2023-01-19T10:40:34.058Z,15.67
2023-01-19T10:43:01.911Z,15.90
2023-01-19T10:45:30.810Z,17.37
2023-01-19T10:48:06.828Z,15.80
2023-01-19T10:50:35.299Z,15.77
2023-01-19T10:53:03.879Z,16.70
2023-01-19T10:55:37.998Z,16.20
2023-01-19T10:58:05.981Z,17.27
2023-01-19T11:00:43.242Z,17.37
2023-01-19T11:03:23.593Z,15.60
2023-01-19T11:05:50.779Z,17.30
2023-01-19T11:08:29.479Z,14.83
2023-01-19T11:11:02.293Z,15.27
2023-01-19T11:13:29.210Z,15.57
2023-01-19T11:15:57.804Z,15.07
2023-01-19T11:18:28.435Z,14.60
2023-01-19T11:20:56.744Z,13.73
2023-01-19T11:23:28.780Z,14.57
2023-01-19T11:25:58.801Z,14.27
2023-01-19T11:28:36.880Z,13.93
2023-01-19T11:31:16.069Z,14.17
2023-01-19T11:33:54.308Z,15.13
2023-01-19T11:36:25.736Z,14.67
2023-01-19T11:39:20.363Z,15.07
2023-01-19T11:41:51.940Z,13.43
2023-01-19T11:44:20.845Z,13.53
2023-01-19T11:46:50.605Z,14.90
2023-01-19T11:49:22.473Z,13.60
2023-01-19T11:52:08.194Z,13.50
2023-01-19T11:54:45.950Z,13.80
2023-01-19T11:57:14.070Z,13.77
2023-01-19T11:59:41.561Z,12.90
2023-01-19T12:02:26.230Z,13.40
2023-01-19T12:04:56.302Z,13.00
2023-01-19T12:07:27.047Z,12.57
2023-01-19T12:09:56.782Z,12.67
2023-01-19T12:12:33.281Z,12.70
2023-01-19T12:15:07.478Z,12.13
2023-01-19T12:17:37.899Z,11.60
2023-01-19T12:20:15.063Z,11.90
2023-01-19T12:22:49.435Z,12.40
2023-01-19T12:25:21.434Z,11.97
2023-01-19T12:27:49.341Z,12.97
2023-01-19T12:30:21.937Z,12.43
2023-01-19T12:32:51.216Z,12.37
2023-01-19T12:35:54.696Z,13.10
2023-01-19T12:38:34.449Z,12.87
2023-01-19T12:41:19.664Z,12.23
2023-01-19T12:43:47.342Z,11.67
2023-01-19T12:46:21.880Z,11.53
2023-01-19T12:48:48.736Z,11.57
2023-01-19T12:51:26.650Z,13.53
2023-01-19T12:54:01.860Z,11.30
2023-01-19T12:56:34.465Z,12.17
2023-01-19T12:59:01.488Z,13.03
2023-01-19T13:01:28.392Z,11.10
2023-01-19T13:04:00.966Z,11.53
2023-01-19T13:06:49.088Z,12.40
2023-01-19T13:09:33.887Z,13.03
2023-01-19T13:12:16.187Z,11.80
2023-01-19T13:14:43.741Z,11.93
2023-01-19T13:17:23.068Z,11.53
2023-01-19T13:19:54.767Z,12.27
2023-01-19T13:22:46.508Z,11.40
2023-01-19T13:25:14.499Z,11.37
2023-01-19T13:27:41.843Z,11.77
2023-01-19T13:30:13.201Z,13.47
2023-01-19T13:32:41.716Z,13.33
2023-01-19T13:35:14.212Z,12.90
2023-01-19T13:37:43.866Z,12.43
2023-01-19T13:40:19.590Z,12.73
2023-01-19T13:42:47.080Z,14.70
2023-01-19T13:45:37.070Z,13.63
2023-01-19T13:48:06.410Z,12.90
2023-01-19T13:50:35.407Z,12.53
2023-01-19T13:53:04.633Z,12.43
2023-01-19T13:55:31.932Z,13.20
2023-01-19T13:57:59.151Z,13.03
2023-01-19T14:00:27.487Z,13.03
2023-01-19T14:03:02.270Z,12.60
2023-01-19T14:05:34.088Z,11.63
2023-01-19T14:08:02.641Z,12.40
2023-01-19T14:10:31.231Z,13.27
2023-01-19T14:13:02.383Z,12.70
2023-01-19T14:15:30.326Z,11.53
2023-01-19T14:18:11.802Z,11.73
2023-01-19T14:20:39.308Z,12.53
2023-01-19T14:23:07.524Z,11.50
2023-01-19T14:25:36.035Z,11.23
2023-01-19T14:28:28.373Z,11.00
2023-01-19T14:30:59.595Z,10.27
2023-01-19T14:33:35.630Z,10.77
2023-01-19T14:36:39.205Z,10.83
2023-01-19T14:39:06.637Z,10.57
2023-01-19T14:41:43.176Z,12.27
2023-01-19T14:44:18.072Z,10.70
2023-01-19T14:46:47.206Z,11.90
2023-01-19T14:49:17.793Z,10.90
2023-01-19T14:51:46.912Z,10.97
2023-01-19T14:54:17.022Z,11.53
2023-01-19T14:56:44.107Z,12.40
2023-01-19T14:59:11.632Z,11.30
2023-01-19T15:01:38.555Z,10.77
2023-01-19T15:04:05.853Z,10.93
2023-01-19T15:06:34.544Z,11.00
2023-01-19T15:09:01.789Z,10.87
2023-01-19T15:11:34.646Z,11.03
2023-01-19T15:14:02.811Z,10.23
2023-01-19T15:16:30.635Z,11.00
2023-01-19T15:18:58.141Z,10.63
2023-01-19T15:21:26.928Z,10.40
2023-01-19T15:23:54.859Z,9.93
2023-01-19T15:26:24.564Z,10.80
2023-01-19T15:28:52.377Z,10.30
2023-01-19T15:31:24.914Z,9.63
2023-01-19T15:33:52.196Z,9.77
2023-01-19T15:36:20.685Z,11.20
2023-01-19T15:38:51.055Z,10.77
2023-01-19T15:41:30.039Z,10.87
2023-01-19T15:43:57.747Z,9.60
2023-01-19T15:46:25.881Z,10.30
2023-01-19T15:48:53.956Z,9.80
2023-01-19T15:51:22.204Z,9.80
2023-01-19T15:53:50.322Z,19.57
2023-01-19T15:56:18.603Z,12.73
2023-01-19T15:58:46.028Z,9.80
2023-01-19T16:01:23.052Z,11.40
2023-01-19T16:03:50.643Z,9.53
2023-01-19T16:06:17.947Z,11.73
2023-01-19T16:08:45.210Z,10.13
2023-01-19T16:11:18.398Z,10.30
2023-01-19T16:13:46.213Z,9.17
2023-01-19T16:16:17.445Z,8.87
2023-01-19T16:18:45.021Z,8.93
2023-01-19T16:21:12.236Z,8.13
2023-01-19T16:23:39.009Z,8.17
2023-01-19T16:26:07.979Z,9.43
2023-01-19T16:28:38.507Z,9.60
2023-01-19T16:31:05.632Z,8.97
2023-01-19T16:33:32.406Z,8.00
2023-01-19T16:35:59.524Z,8.53
2023-01-19T16:38:26.687Z,9.10
2023-01-19T16:40:53.794Z,8.00
2023-01-19T16:43:20.863Z,7.13
2023-01-19T16:46:02.740Z,7.47
2023-01-19T16:48:30.636Z,6.83
2023-01-19T16:51:00.828Z,6.80
2023-01-19T16:53:28.235Z,6.80
2023-01-19T16:55:55.386Z,6.40
2023-01-19T16:58:22.098Z,6.23
2023-01-19T17:00:49.361Z,6.23
2023-01-19T17:03:16.093Z,6.20
2023-01-19T17:05:48.859Z,6.13
2023-01-19T17:08:15.943Z,5.93
2023-01-19T17:10:43.644Z,5.77
2023-01-19T17:13:10.374Z,6.43
2023-01-19T17:15:37.487Z,5.97
2023-01-19T17:18:05.868Z,5.63
2023-01-19T17:20:33.939Z,5.37
2023-01-19T17:23:01.060Z,5.80
2023-01-19T17:25:27.753Z,5.67
2023-01-19T17:27:54.886Z,5.53
2023-01-19T17:30:22.285Z,4.73
2023-01-19T17:32:49.422Z,4.60
2023-01-19T17:35:16.184Z,5.20
2023-01-19T17:37:43.331Z,5.90
2023-01-19T17:40:11.174Z,5.70
2023-01-19T17:42:41.010Z,5.83
2023-01-19T17:45:08.729Z,5.53
2023-01-19T17:47:35.799Z,5.50
2023-01-19T17:50:02.480Z,5.53
2023-01-19T17:52:29.657Z,5.57
2023-01-19T17:54:56.999Z,5.30
2023-01-19T17:57:24.103Z,4.83
2023-01-19T17:59:51.227Z,4.83
2023-01-19T18:02:18.461Z,4.70
2023-01-19T18:04:45.168Z,4.37
2023-01-19T18:07:12.276Z,4.87
2023-01-19T18:09:39.393Z,4.53
2023-01-19T18:12:06.517Z,4.90
2023-01-19T18:14:33.594Z,4.40
2023-01-19T18:17:00.706Z,5.03
2023-01-19T18:19:27.608Z,4.90
2023-01-19T18:21:54.262Z,4.83
2023-01-19T18:24:21.346Z,4.33
2023-01-19T18:26:48.398Z,4.73
2023-01-19T18:29:16.629Z,4.60
2023-01-19T18:31:43.798Z,4.30
2023-01-19T18:34:10.535Z,4.20
2023-01-19T18:36:37.661Z,4.20
2023-01-19T18:39:04.925Z,4.20
2023-01-19T18:41:32.087Z,4.90
2023-01-19T18:43:59.625Z,4.70
2023-01-19T18:46:27.276Z,4.07
2023-01-19T18:48:54.773Z,4.40
2023-01-19T18:51:21.899Z,4.67
2023-01-19T18:53:49.021Z,4.30
2023-01-19T18:56:16.567Z,4.87
2023-01-19T18:58:43.915Z,3.97
2023-01-19T19:01:18.048Z,4.23
2023-01-19T19:03:45.290Z,4.00
2023-01-19T19:06:12.057Z,4.27
2023-01-19T19:08:39.826Z,4.30
2023-01-19T19:11:08.142Z,3.93
2023-01-19T19:13:35.307Z,3.80
2023-01-19T19:16:05.862Z,3.87
2023-01-19T19:18:32.957Z,3.70
2023-01-19T19:21:00.107Z,4.40
2023-01-19T19:23:26.841Z,4.33
2023-01-19T19:25:53.911Z,4.70
2023-01-19T19:28:20.593Z,4.77
2023-01-19T19:30:47.874Z,5.07
2023-01-19T19:33:14.654Z,5.43
2023-01-19T19:35:41.756Z,5.60
2023-01-19T19:38:08.822Z,4.70
2023-01-19T19:40:35.947Z,5.63
2023-01-19T19:43:04.069Z,5.47
2023-01-19T19:45:31.130Z,5.27
2023-01-19T19:47:58.197Z,5.27
2023-01-19T19:50:25.284Z,5.60
2023-01-19T19:52:51.987Z,5.77
2023-01-19T19:55:19.067Z,5.60
2023-01-19T19:57:45.833Z,5.73
2023-01-19T20:00:13.279Z,5.63
2023-01-19T20:02:40.441Z,5.13
2023-01-19T20:05:07.661Z,5.67
2023-01-19T20:07:34.436Z,5.83
2023-01-19T20:10:01.507Z,5.57
2023-01-19T20:12:28.695Z,6.13
2023-01-19T20:14:55.750Z,6.33
2023-01-19T20:17:23.201Z,5.60
2023-01-19T20:19:50.348Z,5.80
2023-01-19T20:22:17.118Z,7.13
2023-01-19T20:24:44.488Z,5.97
2023-01-19T20:27:11.231Z,6.27
2023-01-19T20:29:38.391Z,6.20
2023-01-19T20:32:05.223Z,6.67
2023-01-19T20:34:33.747Z,7.33
2023-01-19T20:37:01.691Z,6.93
2023-01-19T20:39:33.009Z,7.10
2023-01-19T20:42:00.167Z,7.07
2023-01-19T20:44:27.329Z,6.60
2023-01-19T20:46:54.905Z,7.33
2023-01-19T20:49:22.271Z,6.80
2023-01-19T20:51:51.180Z,6.87
2023-01-19T20:54:19.799Z,7.10
2023-01-19T20:56:46.880Z,7.37
2023-01-19T20:59:14.062Z,6.47
2023-01-19T21:01:41.710Z,6.30
2023-01-19T21:04:09.009Z,6.90
2023-01-19T21:06:36.394Z,6.60
2023-01-19T21:09:03.786Z,7.00
2023-01-19T21:11:31.285Z,6.90
2023-01-19T21:13:58.438Z,7.10
2023-01-19T21:16:26.898Z,6.90
2023-01-19T21:18:54.492Z,7.67
2023-01-19T21:21:30.396Z,6.63
2023-01-19T21:23:59.055Z,6.60
2023-01-19T21:26:25.981Z,7.30
2023-01-19T21:28:53.158Z,7.00
2023-01-19T21:31:22.542Z,6.87
2023-01-19T21:33:53.291Z,7.10
2023-01-19T21:36:21.251Z,6.77
2023-01-19T21:38:48.437Z,6.43
2023-01-19T21:41:16.330Z,7.20
2023-01-19T21:43:43.584Z,6.43
2023-01-19T21:46:11.895Z,6.90
2023-01-19T21:48:39.065Z,6.83
2023-01-19T21:51:06.256Z,7.17
2023-01-19T21:53:33.195Z,7.33
2023-01-19T21:56:00.372Z,7.57
2023-01-19T21:58:27.759Z,7.33
2023-01-19T22:01:02.115Z,8.13
2023-01-19T22:03:29.075Z,7.57
2023-01-19T22:05:55.949Z,8.47
2023-01-19T22:08:23.800Z,8.33
2023-01-19T22:10:50.911Z,8.37
2023-01-19T22:13:17.955Z,8.10
2023-01-19T22:15:45.046Z,7.77
2023-01-19T22:18:12.157Z,8.23
2023-01-19T22:20:39.347Z,8.03
2023-01-19T22:23:06.416Z,8.20
2023-01-19T22:25:33.944Z,8.17
2023-01-19T22:28:01.031Z,8.43
2023-01-19T22:30:28.196Z,11.80
2023-01-19T22:32:54.924Z,9.97
2023-01-19T22:35:22.023Z,9.40
2023-01-19T22:37:48.668Z,9.27
2023-01-19T22:40:15.822Z,8.27
2023-01-19T22:42:46.938Z,7.43
2023-01-19T22:45:15.053Z,7.30
2023-01-19T22:47:42.404Z,7.97
2023-01-19T22:50:09.790Z,7.73
2023-01-19T22:52:36.877Z,7.00
2023-01-19T22:55:03.819Z,7.40
2023-01-19T22:57:35.662Z,7.33
2023-01-19T23:00:05.276Z,7.47
2023-01-19T23:02:32.001Z,7.53
2023-01-19T23:04:58.785Z,6.90
2023-01-19T23:07:25.838Z,6.90
2023-01-19T23:09:52.897Z,7.00
2023-01-19T23:12:20.037Z,7.63
2023-01-19T23:14:46.689Z,8.03
2023-01-19T23:17:13.775Z,7.83
2023-01-19T23:19:40.834Z,7.40
2023-01-19T23:22:07.564Z,8.13
2023-01-19T23:24:34.657Z,7.97
2023-01-19T23:27:02.415Z,7.40
2023-01-19T23:29:29.524Z,7.87
2023-01-19T23:31:56.926Z,7.63
2023-01-19T23:34:23.611Z,7.30
2023-01-19T23:36:50.674Z,7.77
2023-01-19T23:39:21.121Z,7.90
2023-01-19T23:41:48.649Z,8.60
2023-01-19T23:44:16.963Z,8.40
2023-01-19T23:46:44.442Z,7.23
2023-01-19T23:49:11.878Z,8.30
2023-01-19T23:51:39.693Z,8.40
2023-01-19T23:54:06.731Z,8.23
2023-01-19T23:56:34.975Z,8.83
2023-01-19T23:59:03.441Z,8.30
